createdAt,value
2023-03-08T00:01:09.565Z,2.00
2023-03-08T00:03:36.161Z,1.90
2023-03-08T00:06:06.697Z,1.90
2023-03-08T00:08:33.390Z,1.90
2023-03-08T00:11:00.108Z,1.90
2023-03-08T00:13:26.818Z,1.80
2023-03-08T00:15:53.503Z,1.80
2023-03-08T00:18:20.070Z,1.80
2023-03-08T00:20:46.675Z,1.80
2023-03-08T00:23:13.265Z,1.70
2023-03-08T00:25:39.822Z,1.80
2023-03-08T00:28:06.435Z,1.60
2023-03-08T00:30:33.117Z,1.60
2023-03-08T00:32:59.705Z,1.60
2023-03-08T00:35:26.291Z,1.60
2023-03-08T00:37:52.925Z,1.60
2023-03-08T00:40:19.582Z,1.60
2023-03-08T00:42:46.208Z,1.60
2023-03-08T00:45:13.042Z,1.60
2023-03-08T00:47:39.630Z,1.50
2023-03-08T00:50:06.691Z,1.50
2023-03-08T00:52:33.266Z,1.50
2023-03-08T00:54:59.924Z,1.50
2023-03-08T00:57:26.547Z,1.50
2023-03-08T00:59:53.219Z,1.40
2023-03-08T01:02:19.785Z,1.40
2023-03-08T01:04:46.391Z,1.40
2023-03-08T01:07:13.029Z,1.40
2023-03-08T01:09:39.646Z,1.40
2023-03-08T01:12:06.269Z,1.40
2023-03-08T01:14:32.928Z,1.40
2023-03-08T01:16:59.566Z,1.40
2023-03-08T01:19:26.177Z,1.30
2023-03-08T01:21:52.794Z,1.30
2023-03-08T01:24:19.457Z,1.30
2023-03-08T01:26:46.115Z,1.30
2023-03-08T01:29:12.719Z,1.30
2023-03-08T01:31:39.308Z,1.20
2023-03-08T01:34:05.944Z,1.30
2023-03-08T01:36:32.548Z,1.20
2023-03-08T01:39:02.205Z,1.20
2023-03-08T01:41:29.734Z,1.20
2023-03-08T01:43:56.426Z,1.20
2023-03-08T01:46:33.292Z,1.20
2023-03-08T01:49:18.886Z,1.20
2023-03-08T01:52:04.406Z,1.10
2023-03-08T01:54:36.184Z,1.10
2023-03-08T01:57:04.550Z,1.10
2023-03-08T01:59:33.146Z,1.10
2023-03-08T02:02:00.036Z,1.10
2023-03-08T02:04:27.097Z,1.00
2023-03-08T02:06:53.903Z,1.00
2023-03-08T02:09:20.853Z,1.00
2023-03-08T02:11:48.123Z,1.00
2023-03-08T02:14:14.997Z,0.90
2023-03-08T02:16:41.604Z,0.90
2023-03-08T02:19:14.197Z,0.90
2023-03-08T02:21:40.845Z,0.90
2023-03-08T02:24:17.320Z,0.90
2023-03-08T02:26:44.089Z,0.90
2023-03-08T02:29:10.682Z,0.90
2023-03-08T02:31:37.333Z,0.90
2023-03-08T02:34:03.980Z,0.80
2023-03-08T02:36:30.587Z,0.80
2023-03-08T02:38:57.149Z,0.80
2023-03-08T02:41:23.823Z,0.80
2023-03-08T02:43:50.432Z,0.80
2023-03-08T02:46:17.018Z,0.80
2023-03-08T02:48:46.027Z,0.90
2023-03-08T02:51:12.780Z,0.90
2023-03-08T02:53:39.421Z,0.90
2023-03-08T02:56:06.114Z,0.90
2023-03-08T02:58:32.696Z,0.90
2023-03-08T03:00:59.320Z,0.90
2023-03-08T03:03:26.025Z,0.90
2023-03-08T03:05:52.686Z,1.00
2023-03-08T03:08:19.417Z,1.00
2023-03-08T03:10:46.098Z,1.10
2023-03-08T03:13:12.740Z,1.10
2023-03-08T03:15:39.968Z,1.10
2023-03-08T03:18:06.597Z,1.10
2023-03-08T03:20:33.581Z,1.10
2023-03-08T03:23:00.201Z,1.10
2023-03-08T03:25:26.900Z,1.10
2023-03-08T03:27:54.225Z,1.10
2023-03-08T03:30:20.873Z,1.20
2023-03-08T03:32:47.507Z,1.30
2023-03-08T03:35:14.245Z,1.30
2023-03-08T03:37:40.856Z,1.40
2023-03-08T03:40:07.842Z,1.40
2023-03-08T03:42:34.414Z,1.40
2023-03-08T03:45:01.100Z,1.30
2023-03-08T03:47:28.413Z,1.40
2023-03-08T03:49:55.006Z,1.40
2023-03-08T03:52:21.584Z,1.40
2023-03-08T03:54:48.208Z,1.50
2023-03-08T03:57:14.805Z,1.40
2023-03-08T03:59:41.400Z,1.50
2023-03-08T04:02:08.086Z,1.50
2023-03-08T04:04:34.663Z,1.30
2023-03-08T04:07:01.246Z,1.40
2023-03-08T04:09:27.867Z,1.40
2023-03-08T04:11:54.532Z,1.40
2023-03-08T04:14:21.807Z,1.50
2023-03-08T04:16:48.407Z,1.60
2023-03-08T04:19:14.948Z,1.60
2023-03-08T04:21:41.541Z,1.70
2023-03-08T04:24:08.248Z,1.70
2023-03-08T04:26:35.082Z,1.70
2023-03-08T04:29:05.578Z,1.80
2023-03-08T04:31:32.954Z,1.80
2023-03-08T04:33:59.594Z,1.70
2023-03-08T04:36:26.197Z,1.60
2023-03-08T04:38:52.820Z,1.60
2023-03-08T04:41:19.761Z,1.50
2023-03-08T04:43:46.379Z,1.60
2023-03-08T04:46:13.376Z,1.50
2023-03-08T04:48:40.193Z,1.40
2023-03-08T04:51:07.530Z,1.20
2023-03-08T04:53:34.547Z,1.10
2023-03-08T04:56:01.504Z,1.10
2023-03-08T04:58:28.561Z,1.00
2023-03-08T05:00:55.422Z,1.00
2023-03-08T05:03:22.188Z,1.00
2023-03-08T05:05:50.120Z,1.00
2023-03-08T05:08:17.006Z,0.90
2023-03-08T05:11:01.154Z,1.00
2023-03-08T05:13:29.937Z,1.00
2023-03-08T05:15:56.743Z,1.00
2023-03-08T05:18:23.352Z,0.90
2023-03-08T05:20:57.076Z,0.90
2023-03-08T05:23:24.429Z,0.90
2023-03-08T05:25:55.061Z,0.90
2023-03-08T05:28:22.826Z,0.90
2023-03-08T05:30:49.887Z,0.90
2023-03-08T05:33:17.273Z,0.90
2023-03-08T05:35:44.270Z,0.90
2023-03-08T05:38:10.864Z,0.80
2023-03-08T05:40:37.828Z,0.80
2023-03-08T05:43:04.472Z,0.80
2023-03-08T05:45:31.096Z,0.80
2023-03-08T05:47:57.995Z,0.90
2023-03-08T05:50:24.616Z,0.80
2023-03-08T05:52:51.193Z,0.80
2023-03-08T05:55:17.776Z,0.80
2023-03-08T05:57:44.366Z,0.90
2023-03-08T06:00:11.301Z,0.90
2023-03-08T06:02:37.914Z,0.90
2023-03-08T06:05:05.134Z,0.90
2023-03-08T06:07:31.783Z,1.00
2023-03-08T06:09:58.345Z,1.00
2023-03-08T06:12:24.980Z,1.00
2023-03-08T06:14:51.610Z,1.10
2023-03-08T06:17:18.185Z,1.10
2023-03-08T06:19:46.011Z,1.00
2023-03-08T06:22:12.620Z,1.00
2023-03-08T06:24:39.220Z,1.00
2023-03-08T06:27:05.853Z,1.00
2023-03-08T06:29:32.509Z,1.00
2023-03-08T06:32:01.661Z,1.00
2023-03-08T06:34:28.748Z,1.00
2023-03-08T06:36:59.601Z,0.90
2023-03-08T06:39:26.947Z,1.00
2023-03-08T06:41:53.551Z,1.00
2023-03-08T06:44:20.133Z,1.10
2023-03-08T06:46:46.723Z,1.20
2023-03-08T06:49:13.419Z,1.40
2023-03-08T06:51:40.153Z,1.50
2023-03-08T06:54:06.786Z,1.60
2023-03-08T06:56:33.373Z,1.70
2023-03-08T06:58:59.977Z,1.80
2023-03-08T07:01:26.691Z,1.80
2023-03-08T07:03:53.415Z,1.80
2023-03-08T07:06:19.992Z,1.80
2023-03-08T07:08:46.600Z,1.80
2023-03-08T07:11:13.218Z,1.80
2023-03-08T07:13:39.904Z,1.90
2023-03-08T07:16:10.772Z,2.00
2023-03-08T07:18:38.043Z,2.10
2023-03-08T07:21:05.217Z,2.20
2023-03-08T07:23:32.039Z,2.20
2023-03-08T07:25:58.676Z,2.30
2023-03-08T07:28:25.291Z,2.40
2023-03-08T07:30:52.581Z,2.50
2023-03-08T07:33:20.594Z,2.50
2023-03-08T07:35:47.529Z,2.70
2023-03-08T07:38:14.815Z,2.60
2023-03-08T07:40:41.832Z,2.60
2023-03-08T07:43:08.729Z,2.70
2023-03-08T07:45:35.576Z,2.80
2023-03-08T07:48:02.167Z,2.90
2023-03-08T07:50:29.209Z,2.90
2023-03-08T07:52:55.809Z,2.90
2023-03-08T07:55:22.453Z,2.90
2023-03-08T07:57:49.155Z,3.00
2023-03-08T08:00:15.945Z,2.90
2023-03-08T08:02:42.729Z,2.90
2023-03-08T08:05:09.461Z,3.00
2023-03-08T08:07:36.099Z,3.00
2023-03-08T08:10:02.723Z,3.20
2023-03-08T08:12:29.397Z,3.20
2023-03-08T08:14:56.057Z,3.20
2023-03-08T08:17:22.731Z,3.30
2023-03-08T08:19:49.408Z,3.40
2023-03-08T08:22:16.070Z,3.60
2023-03-08T08:24:42.683Z,3.70
2023-03-08T08:27:09.282Z,3.90
2023-03-08T08:29:36.915Z,4.10
2023-03-08T08:32:04.226Z,4.60
2023-03-08T08:34:30.873Z,4.80
2023-03-08T08:36:57.524Z,4.90
2023-03-08T08:39:24.148Z,4.90
2023-03-08T08:41:50.886Z,4.90
2023-03-08T08:44:17.805Z,4.70
2023-03-08T08:46:44.449Z,4.70
2023-03-08T08:49:11.140Z,4.60
2023-03-08T08:51:37.750Z,4.70
2023-03-08T08:54:04.447Z,4.70
2023-03-08T08:56:31.102Z,4.90
2023-03-08T08:58:59.884Z,4.90
2023-03-08T09:01:28.217Z,5.10
2023-03-08T09:03:54.973Z,5.20
2023-03-08T09:06:22.594Z,5.30
2023-03-08T09:08:54.782Z,5.60
2023-03-08T09:11:21.839Z,5.90
2023-03-08T09:13:48.406Z,5.80
2023-03-08T09:16:21.268Z,5.90
2023-03-08T09:18:48.547Z,5.70
2023-03-08T09:21:15.498Z,5.40
2023-03-08T09:23:42.200Z,5.60
2023-03-08T09:26:08.890Z,5.50
2023-03-08T09:28:35.794Z,5.60
2023-03-08T09:31:09.804Z,6.00
2023-03-08T09:33:36.834Z,6.00
2023-03-08T09:36:03.574Z,6.10
2023-03-08T09:38:30.146Z,6.00
2023-03-08T09:40:56.710Z,6.00
2023-03-08T09:43:29.613Z,5.90
2023-03-08T09:45:56.280Z,5.70
2023-03-08T09:48:25.858Z,5.60
2023-03-08T09:50:54.001Z,5.80
2023-03-08T09:53:34.364Z,5.70
2023-03-08T09:56:19.691Z,5.70
2023-03-08T09:58:49.781Z,6.10
2023-03-08T10:01:31.639Z,6.30
2023-03-08T10:04:08.322Z,6.10
2023-03-08T10:06:44.230Z,6.40
2023-03-08T10:09:35.757Z,6.80
2023-03-08T10:12:20.728Z,7.00
2023-03-08T10:14:53.032Z,7.00
2023-03-08T10:17:24.791Z,7.20
2023-03-08T10:19:51.440Z,7.60
2023-03-08T10:22:28.493Z,8.50
2023-03-08T10:24:57.589Z,8.40
2023-03-08T10:27:28.531Z,8.30
2023-03-08T10:29:56.486Z,8.70
2023-03-08T10:32:24.145Z,9.70
2023-03-08T10:34:50.974Z,10.30
2023-03-08T10:37:17.577Z,9.90
2023-03-08T10:39:52.565Z,9.50
2023-03-08T10:42:21.189Z,9.60
2023-03-08T10:44:54.022Z,10.10
2023-03-08T10:47:23.691Z,10.20
2023-03-08T10:50:02.916Z,9.70
2023-03-08T10:52:29.554Z,9.60
2023-03-08T10:55:16.046Z,9.40
2023-03-08T10:57:48.276Z,9.10
2023-03-08T11:00:18.240Z,8.80
2023-03-08T11:02:45.248Z,9.90
2023-03-08T11:05:18.244Z,10.80
2023-03-08T11:07:50.651Z,10.50
2023-03-08T11:10:18.903Z,10.20
2023-03-08T11:12:45.791Z,10.30
2023-03-08T11:15:13.410Z,10.30
2023-03-08T11:17:41.299Z,10.00
2023-03-08T11:20:24.848Z,9.40
2023-03-08T11:23:09.403Z,9.10
2023-03-08T11:25:36.003Z,9.00
2023-03-08T11:28:17.940Z,8.70
2023-03-08T11:30:50.359Z,8.40
2023-03-08T11:33:20.171Z,8.60
2023-03-08T11:36:16.004Z,8.50
2023-03-08T11:38:42.943Z,8.30
2023-03-08T11:41:09.475Z,8.40
2023-03-08T11:43:48.583Z,8.30
2023-03-08T11:46:18.055Z,8.10
2023-03-08T11:49:03.739Z,8.00
2023-03-08T11:51:30.351Z,8.10
2023-03-08T11:53:56.973Z,7.60
2023-03-08T11:56:26.988Z,7.10
2023-03-08T11:58:57.827Z,7.10
2023-03-08T12:01:26.284Z,6.90
2023-03-08T12:03:54.583Z,6.80
2023-03-08T12:06:29.603Z,6.80
2023-03-08T12:08:59.210Z,6.80
2023-03-08T12:12:03.350Z,6.90
2023-03-08T12:14:34.935Z,6.90
2023-03-08T12:17:01.803Z,6.80
2023-03-08T12:19:31.601Z,6.90
2023-03-08T12:22:18.432Z,7.00
2023-03-08T12:24:58.576Z,7.00
2023-03-08T12:27:46.945Z,7.10
2023-03-08T12:30:17.299Z,7.00
2023-03-08T12:32:44.757Z,6.70
2023-03-08T12:35:14.517Z,6.70
2023-03-08T12:37:41.175Z,6.60
2023-03-08T12:40:27.001Z,6.50
2023-03-08T12:43:03.921Z,6.50
2023-03-08T12:45:32.811Z,6.60
2023-03-08T12:48:02.673Z,6.60
2023-03-08T12:50:30.382Z,6.50
2023-03-08T12:52:58.685Z,6.60
2023-03-08T12:55:31.835Z,6.60
2023-03-08T12:58:02.056Z,6.50
2023-03-08T13:00:30.587Z,6.50
2023-03-08T13:02:59.956Z,6.30
2023-03-08T13:05:35.050Z,6.20
2023-03-08T13:08:01.884Z,6.20
2023-03-08T13:10:35.973Z,6.10
2023-03-08T13:13:20.469Z,6.10
2023-03-08T13:16:15.918Z,6.20
2023-03-08T13:18:45.406Z,6.20
2023-03-08T13:21:23.747Z,6.20
2023-03-08T13:23:54.594Z,6.00
2023-03-08T13:26:21.271Z,5.80
2023-03-08T13:28:48.775Z,5.80
2023-03-08T13:31:18.191Z,5.60
2023-03-08T13:33:49.924Z,5.50
2023-03-08T13:36:23.467Z,5.50
2023-03-08T13:38:59.322Z,5.40
2023-03-08T13:41:35.076Z,5.40
2023-03-08T13:44:02.728Z,5.60
2023-03-08T13:46:29.629Z,5.50
2023-03-08T13:48:56.345Z,5.60
2023-03-08T13:51:24.877Z,5.50
2023-03-08T13:53:51.762Z,5.40
2023-03-08T13:56:28.254Z,5.30
2023-03-08T13:58:56.845Z,5.30
2023-03-08T14:01:24.827Z,5.30
2023-03-08T14:03:52.633Z,5.40
2023-03-08T14:06:29.875Z,5.60
2023-03-08T14:09:02.264Z,5.70
2023-03-08T14:11:30.465Z,5.80
2023-03-08T14:13:58.186Z,5.70
2023-03-08T14:16:31.407Z,5.30
2023-03-08T14:19:09.536Z,5.10
2023-03-08T14:21:36.359Z,5.10
2023-03-08T14:24:06.757Z,5.10
2023-03-08T14:26:40.390Z,5.20
2023-03-08T14:29:13.209Z,5.30
2023-03-08T14:31:51.435Z,5.30
2023-03-08T14:34:20.901Z,5.40
2023-03-08T14:36:55.993Z,5.30
2023-03-08T14:39:24.180Z,5.40
2023-03-08T14:41:51.022Z,5.20
2023-03-08T14:44:20.433Z,5.20
2023-03-08T14:46:47.553Z,5.20
2023-03-08T14:49:21.741Z,5.20
2023-03-08T14:51:48.346Z,5.10
2023-03-08T14:54:21.167Z,5.20
2023-03-08T14:56:48.862Z,5.10
2023-03-08T14:59:27.191Z,5.10
2023-03-08T15:01:54.393Z,5.10
2023-03-08T15:04:25.586Z,5.00
2023-03-08T15:06:53.847Z,5.00
2023-03-08T15:09:21.797Z,4.90
2023-03-08T15:11:49.453Z,4.80
2023-03-08T15:14:16.087Z,4.60
2023-03-08T15:16:42.733Z,4.50
2023-03-08T15:19:10.544Z,4.60
2023-03-08T15:21:37.535Z,4.70
2023-03-08T15:24:05.816Z,4.60
2023-03-08T15:26:32.533Z,4.60
2023-03-08T15:28:59.518Z,4.70
2023-03-08T15:31:26.241Z,4.70
2023-03-08T15:33:52.870Z,4.60
2023-03-08T15:36:19.930Z,4.60
2023-03-08T15:38:46.616Z,4.60
2023-03-08T15:41:13.912Z,4.60
2023-03-08T15:43:40.697Z,4.50
2023-03-08T15:46:09.392Z,4.50
2023-03-08T15:48:36.001Z,4.50
2023-03-08T15:51:02.634Z,4.50
2023-03-08T15:53:35.710Z,4.50
2023-03-08T15:56:03.332Z,4.50
2023-03-08T15:58:30.002Z,4.50
2023-03-08T16:00:57.660Z,4.50
2023-03-08T16:03:30.857Z,4.40
2023-03-08T16:05:58.701Z,4.40
2023-03-08T16:08:25.818Z,4.20
2023-03-08T16:10:52.636Z,4.00
2023-03-08T16:13:21.854Z,4.00
2023-03-08T16:15:49.241Z,3.90
2023-03-08T16:18:16.147Z,3.70
2023-03-08T16:20:42.909Z,3.70
2023-03-08T16:23:09.590Z,3.70
2023-03-08T16:25:38.646Z,3.60
2023-03-08T16:28:05.508Z,3.80
2023-03-08T16:30:33.350Z,3.80
2023-03-08T16:33:00.040Z,3.80
2023-03-08T16:35:26.702Z,3.80
2023-03-08T16:37:53.897Z,3.80
2023-03-08T16:40:20.732Z,3.80
2023-03-08T16:42:49.998Z,3.80
2023-03-08T16:45:16.796Z,3.70
2023-03-08T16:47:43.428Z,3.70
2023-03-08T16:50:11.987Z,3.70
2023-03-08T16:52:38.688Z,3.80
2023-03-08T16:55:05.663Z,3.80
2023-03-08T16:57:33.016Z,3.80
2023-03-08T16:59:59.695Z,3.70
2023-03-08T17:02:26.312Z,3.70
2023-03-08T17:04:53.029Z,3.70
2023-03-08T17:07:19.668Z,3.80
2023-03-08T17:09:46.427Z,3.70
2023-03-08T17:12:13.268Z,3.70
2023-03-08T17:14:41.109Z,3.70
2023-03-08T17:17:07.795Z,3.70
2023-03-08T17:19:34.475Z,3.70
2023-03-08T17:22:01.141Z,3.60
2023-03-08T17:24:30.456Z,3.70
2023-03-08T17:26:57.175Z,3.70
2023-03-08T17:29:24.182Z,3.70
2023-03-08T17:31:50.850Z,3.80
2023-03-08T17:34:18.143Z,3.80
2023-03-08T17:36:46.713Z,3.70
2023-03-08T17:39:14.276Z,3.70
2023-03-08T17:41:41.476Z,3.70
2023-03-08T17:44:08.145Z,3.70
2023-03-08T17:46:35.046Z,3.70
2023-03-08T17:49:01.735Z,3.70
2023-03-08T17:51:29.973Z,3.70
2023-03-08T17:53:57.984Z,3.70
2023-03-08T17:56:32.212Z,3.80
2023-03-08T17:58:59.906Z,3.70
2023-03-08T18:01:28.033Z,3.60
2023-03-08T18:03:55.454Z,3.50
2023-03-08T18:06:29.675Z,3.50
2023-03-08T18:08:57.420Z,3.50
2023-03-08T18:11:24.876Z,3.50
2023-03-08T18:13:51.584Z,3.50
2023-03-08T18:16:19.232Z,3.60
2023-03-08T18:18:49.339Z,3.70
2023-03-08T18:21:19.299Z,3.50
2023-03-08T18:23:46.608Z,3.50
2023-03-08T18:26:13.907Z,3.50
2023-03-08T18:28:40.747Z,3.40
2023-03-08T18:31:08.327Z,3.40
2023-03-08T18:33:35.008Z,3.50
2023-03-08T18:36:01.659Z,3.50
2023-03-08T18:38:28.308Z,3.40
2023-03-08T18:40:54.945Z,3.40
2023-03-08T18:43:21.649Z,3.40
2023-03-08T18:45:55.424Z,3.40
2023-03-08T18:48:23.235Z,3.40
2023-03-08T18:50:49.978Z,3.40
2023-03-08T18:53:16.715Z,3.40
2023-03-08T18:55:53.624Z,3.30
2023-03-08T18:58:20.489Z,3.40
2023-03-08T19:00:47.169Z,3.30
2023-03-08T19:03:13.817Z,3.30
2023-03-08T19:05:40.468Z,3.30
2023-03-08T19:08:07.157Z,3.30
2023-03-08T19:10:33.802Z,3.30
2023-03-08T19:13:00.426Z,3.30
2023-03-08T19:15:27.007Z,3.30
2023-03-08T19:17:57.849Z,3.30
2023-03-08T19:20:26.487Z,3.30
2023-03-08T19:22:53.468Z,3.30
2023-03-08T19:25:20.430Z,3.20
2023-03-08T19:27:47.080Z,3.20
2023-03-08T19:30:13.876Z,3.20
2023-03-08T19:32:42.238Z,3.20
2023-03-08T19:35:09.512Z,3.20
2023-03-08T19:37:36.372Z,3.10
2023-03-08T19:40:04.751Z,3.10
2023-03-08T19:42:31.352Z,3.00
2023-03-08T19:44:58.053Z,3.00
2023-03-08T19:47:24.686Z,3.00
2023-03-08T19:49:51.561Z,3.00
2023-03-08T19:52:18.302Z,3.00
2023-03-08T19:54:46.122Z,3.00
2023-03-08T19:57:13.033Z,3.00
2023-03-08T19:59:39.689Z,3.00
2023-03-08T20:02:08.679Z,3.00
2023-03-08T20:04:36.632Z,3.10
2023-03-08T20:07:04.784Z,3.00
2023-03-08T20:09:31.499Z,3.00
2023-03-08T20:11:59.157Z,3.00
2023-03-08T20:14:27.119Z,3.10
2023-03-08T20:16:54.531Z,3.00
2023-03-08T20:19:21.206Z,3.00
2023-03-08T20:21:47.870Z,3.00
2023-03-08T20:24:14.954Z,2.90
2023-03-08T20:26:42.042Z,3.10
2023-03-08T20:29:08.838Z,3.00
2023-03-08T20:31:35.526Z,2.90
2023-03-08T20:34:02.168Z,3.00
2023-03-08T20:36:29.600Z,3.00
2023-03-08T20:38:57.092Z,3.00
2023-03-08T20:41:23.682Z,3.10
2023-03-08T20:43:51.378Z,3.10
2023-03-08T20:46:20.532Z,3.10
2023-03-08T20:48:47.241Z,3.10
2023-03-08T20:51:15.470Z,3.10
2023-03-08T20:53:42.306Z,3.10
2023-03-08T20:56:11.516Z,3.10
2023-03-08T20:58:38.129Z,3.10
2023-03-08T21:01:12.255Z,3.10
2023-03-08T21:03:39.404Z,3.10
2023-03-08T21:06:13.582Z,3.10
2023-03-08T21:08:40.541Z,3.00
2023-03-08T21:11:07.280Z,3.00
2023-03-08T21:13:34.042Z,3.00
2023-03-08T21:16:05.326Z,3.00
2023-03-08T21:18:32.030Z,3.00
2023-03-08T21:20:58.753Z,2.90
2023-03-08T21:23:25.625Z,2.90
2023-03-08T21:25:53.015Z,3.00
2023-03-08T21:28:20.476Z,3.10
2023-03-08T21:30:47.556Z,3.20
2023-03-08T21:33:14.155Z,3.10
2023-03-08T21:35:41.512Z,3.10
2023-03-08T21:38:08.572Z,3.10
2023-03-08T21:40:36.541Z,3.20
2023-03-08T21:43:03.339Z,3.10
2023-03-08T21:45:30.025Z,3.10
2023-03-08T21:47:57.583Z,3.00
2023-03-08T21:50:24.198Z,3.00
2023-03-08T21:52:50.893Z,3.00
2023-03-08T21:55:19.426Z,3.00
2023-03-08T21:57:46.720Z,2.90
2023-03-08T22:00:14.634Z,3.00
2023-03-08T22:02:44.823Z,3.00
2023-03-08T22:05:12.667Z,3.10
2023-03-08T22:07:39.301Z,3.00
2023-03-08T22:10:06.393Z,3.00
2023-03-08T22:12:33.065Z,3.00
2023-03-08T22:14:59.668Z,3.00
2023-03-08T22:17:26.262Z,3.10
2023-03-08T22:19:54.032Z,3.20
2023-03-08T22:22:20.676Z,3.10
2023-03-08T22:24:47.884Z,3.10
2023-03-08T22:27:14.455Z,3.20
2023-03-08T22:29:41.264Z,3.20
2023-03-08T22:32:07.953Z,3.10
2023-03-08T22:34:34.630Z,3.10
2023-03-08T22:37:01.259Z,3.10
2023-03-08T22:39:30.855Z,3.00
2023-03-08T22:41:57.468Z,3.00
2023-03-08T22:44:24.081Z,2.90
2023-03-08T22:46:50.691Z,2.80
2023-03-08T22:49:17.316Z,2.70
2023-03-08T22:51:44.302Z,2.90
2023-03-08T22:54:24.344Z,2.90
2023-03-08T22:56:51.039Z,2.80
2023-03-08T22:59:17.678Z,2.70
2023-03-08T23:01:44.316Z,2.70
2023-03-08T23:04:12.069Z,2.70
2023-03-08T23:06:39.094Z,2.80
2023-03-08T23:09:07.361Z,2.90
2023-03-08T23:11:34.228Z,3.00
2023-03-08T23:14:00.963Z,3.00
2023-03-08T23:16:27.589Z,2.90
2023-03-08T23:18:54.685Z,2.90
2023-03-08T23:21:23.171Z,2.90
2023-03-08T23:23:49.804Z,2.70
2023-03-08T23:26:18.472Z,2.70
2023-03-08T23:28:45.035Z,2.70
2023-03-08T23:31:12.904Z,2.80
2023-03-08T23:33:39.983Z,2.90
2023-03-08T23:36:06.883Z,2.90
2023-03-08T23:38:33.726Z,2.90
2023-03-08T23:41:03.042Z,2.90
2023-03-08T23:43:29.590Z,2.90
2023-03-08T23:45:56.251Z,2.80
2023-03-08T23:48:22.855Z,2.80
2023-03-08T23:50:49.402Z,2.80
2023-03-08T23:53:16.426Z,2.70
2023-03-08T23:55:43.000Z,2.70
2023-03-08T23:58:09.587Z,2.70
